sensor_id;sensor_type;location;lat;lon;timestamp;P1;durP1;ratioP1;P2;durP2;ratioP2
49730;SDS011;35622;52.008;5.426;2023-03-20T00:00:18;18.63;;;9.45;;
49730;SDS011;35622;52.008;5.426;2023-03-20T00:02:50;15.52;;;8.65;;
49730;SDS011;35622;52.008;5.426;2023-03-20T00:05:20;16.33;;;9.05;;
49730;SDS011;35622;52.008;5.426;2023-03-20T00:07:48;18.77;;;9.20;;
49730;SDS011;35622;52.008;5.426;2023-03-20T00:10:15;19.48;;;10.88;;
49730;SDS011;35622;52.008;5.426;2023-03-20T00:12:42;19.42;;;10.07;;
49730;SDS011;35622;52.008;5.426;2023-03-20T00:15:42;18.88;;;10.38;;
49730;SDS011;35622;52.008;5.426;2023-03-20T00:18:02;18.52;;;10.15;;
49730;SDS011;35622;52.008;5.426;2023-03-20T00:20:28;21.00;;;12.02;;
49730;SDS011;35622;52.008;5.426;2023-03-20T00:22:54;20.42;;;11.88;;
49730;SDS011;35622;52.008;5.426;2023-03-20T00:25:21;19.60;;;10.90;;
49730;SDS011;35622;52.008;5.426;2023-03-20T00:27:48;17.80;;;11.35;;
49730;SDS011;35622;52.008;5.426;2023-03-20T00:30:22;24.65;;;12.48;;
49730;SDS011;35622;52.008;5.426;2023-03-20T00:32:54;29.60;;;14.18;;
49730;SDS011;35622;52.008;5.426;2023-03-20T00:35:25;22.55;;;12.15;;
49730;SDS011;35622;52.008;5.426;2023-03-20T00:37:55;23.80;;;12.73;;
49730;SDS011;35622;52.008;5.426;2023-03-20T00:40:28;19.88;;;11.43;;
49730;SDS011;35622;52.008;5.426;2023-03-20T00:42:59;24.50;;;11.93;;
49730;SDS011;35622;52.008;5.426;2023-03-20T00:45:27;21.50;;;10.88;;
49730;SDS011;35622;52.008;5.426;2023-03-20T00:47:54;17.30;;;9.73;;
49730;SDS011;35622;52.008;5.426;2023-03-20T00:50:22;24.15;;;10.80;;
49730;SDS011;35622;52.008;5.426;2023-03-20T00:52:54;20.40;;;9.85;;
49730;SDS011;35622;52.008;5.426;2023-03-20T00:55:22;15.85;;;9.35;;
49730;SDS011;35622;52.008;5.426;2023-03-20T01:02:51;19.55;;;9.25;;
49730;SDS011;35622;52.008;5.426;2023-03-20T01:05:19;16.13;;;8.85;;
49730;SDS011;35622;52.008;5.426;2023-03-20T01:07:45;20.15;;;8.60;;
49730;SDS011;35622;52.008;5.426;2023-03-20T01:10:11;16.55;;;8.43;;
49730;SDS011;35622;52.008;5.426;2023-03-20T01:12:38;15.60;;;8.27;;
49730;SDS011;35622;52.008;5.426;2023-03-20T01:15:10;18.65;;;8.80;;
49730;SDS011;35622;52.008;5.426;2023-03-20T01:17:41;16.98;;;8.32;;
49730;SDS011;35622;52.008;5.426;2023-03-20T01:20:13;16.67;;;8.18;;
49730;SDS011;35622;52.008;5.426;2023-03-20T01:22:40;14.30;;;7.05;;
49730;SDS011;35622;52.008;5.426;2023-03-20T01:25:06;14.63;;;7.40;;
49730;SDS011;35622;52.008;5.426;2023-03-20T01:27:32;13.98;;;7.82;;
49730;SDS011;35622;52.008;5.426;2023-03-20T01:29:57;14.90;;;7.35;;
49730;SDS011;35622;52.008;5.426;2023-03-20T01:32:23;17.73;;;7.93;;
49730;SDS011;35622;52.008;5.426;2023-03-20T01:34:48;15.63;;;7.22;;
49730;SDS011;35622;52.008;5.426;2023-03-20T01:37:24;18.52;;;8.00;;
49730;SDS011;35622;52.008;5.426;2023-03-20T01:39:51;13.88;;;6.53;;
49730;SDS011;35622;52.008;5.426;2023-03-20T01:42:17;14.77;;;7.07;;
49730;SDS011;35622;52.008;5.426;2023-03-20T01:44:43;13.75;;;7.20;;
49730;SDS011;35622;52.008;5.426;2023-03-20T01:47:19;10.18;;;6.43;;
49730;SDS011;35622;52.008;5.426;2023-03-20T01:52:47;12.13;;;6.10;;
49730;SDS011;35622;52.008;5.426;2023-03-20T01:55:16;10.70;;;6.13;;
49730;SDS011;35622;52.008;5.426;2023-03-20T01:57:43;10.57;;;5.65;;
49730;SDS011;35622;52.008;5.426;2023-03-20T02:00:09;10.35;;;5.82;;
49730;SDS011;35622;52.008;5.426;2023-03-20T02:02:38;11.48;;;5.95;;
49730;SDS011;35622;52.008;5.426;2023-03-20T02:05:06;13.38;;;5.97;;
49730;SDS011;35622;52.008;5.426;2023-03-20T02:07:34;12.35;;;5.30;;
49730;SDS011;35622;52.008;5.426;2023-03-20T02:10:01;9.68;;;5.32;;
49730;SDS011;35622;52.008;5.426;2023-03-20T02:12:32;13.55;;;4.97;;
49730;SDS011;35622;52.008;5.426;2023-03-20T02:14:58;11.73;;;5.00;;
49730;SDS011;35622;52.008;5.426;2023-03-20T02:17:24;11.50;;;5.07;;
49730;SDS011;35622;52.008;5.426;2023-03-20T02:19:57;10.07;;;4.80;;
49730;SDS011;35622;52.008;5.426;2023-03-20T02:28:16;8.20;;;4.88;;
49730;SDS011;35622;52.008;5.426;2023-03-20T02:36:59;15.75;;;7.25;;
49730;SDS011;35622;52.008;5.426;2023-03-20T02:42:55;19.85;;;9.70;;
49730;SDS011;35622;52.008;5.426;2023-03-20T02:45:32;19.92;;;10.05;;
49730;SDS011;35622;52.008;5.426;2023-03-20T02:50:56;19.58;;;11.20;;
49730;SDS011;35622;52.008;5.426;2023-03-20T02:53:42;25.23;;;11.27;;
49730;SDS011;35622;52.008;5.426;2023-03-20T03:01:58;25.13;;;12.82;;
49730;SDS011;35622;52.008;5.426;2023-03-20T03:04:31;25.35;;;12.73;;
49730;SDS011;35622;52.008;5.426;2023-03-20T03:07:17;27.80;;;14.38;;
49730;SDS011;35622;52.008;5.426;2023-03-20T03:09:52;25.27;;;13.68;;
49730;SDS011;35622;52.008;5.426;2023-03-20T03:12:28;28.27;;;13.95;;
49730;SDS011;35622;52.008;5.426;2023-03-20T03:15:03;25.13;;;13.50;;
49730;SDS011;35622;52.008;5.426;2023-03-20T03:17:43;26.10;;;13.52;;
49730;SDS011;35622;52.008;5.426;2023-03-20T03:20:13;28.83;;;14.00;;
49730;SDS011;35622;52.008;5.426;2023-03-20T03:22:56;27.95;;;14.07;;
49730;SDS011;35622;52.008;5.426;2023-03-20T03:25:23;31.23;;;14.45;;
49730;SDS011;35622;52.008;5.426;2023-03-20T03:30:55;25.90;;;13.80;;
49730;SDS011;35622;52.008;5.426;2023-03-20T03:33:24;30.85;;;13.80;;
49730;SDS011;35622;52.008;5.426;2023-03-20T03:36:10;29.98;;;14.05;;
49730;SDS011;35622;52.008;5.426;2023-03-20T03:38:45;24.35;;;12.95;;
49730;SDS011;35622;52.008;5.426;2023-03-20T03:43:55;30.08;;;13.57;;
49730;SDS011;35622;52.008;5.426;2023-03-20T03:46:51;27.05;;;14.43;;
49730;SDS011;35622;52.008;5.426;2023-03-20T03:49:21;24.67;;;13.18;;
49730;SDS011;35622;52.008;5.426;2023-03-20T03:51:53;23.10;;;12.15;;
49730;SDS011;35622;52.008;5.426;2023-03-20T03:54:22;23.80;;;12.82;;
49730;SDS011;35622;52.008;5.426;2023-03-20T03:56:53;31.40;;;13.13;;
49730;SDS011;35622;52.008;5.426;2023-03-20T03:59:33;28.17;;;12.80;;
49730;SDS011;35622;52.008;5.426;2023-03-20T04:02:02;27.05;;;12.90;;
49730;SDS011;35622;52.008;5.426;2023-03-20T04:04:30;25.75;;;12.80;;
49730;SDS011;35622;52.008;5.426;2023-03-20T04:06:57;28.17;;;13.32;;
49730;SDS011;35622;52.008;5.426;2023-03-20T04:09:22;29.45;;;13.43;;
49730;SDS011;35622;52.008;5.426;2023-03-20T04:11:51;30.17;;;12.82;;
49730;SDS011;35622;52.008;5.426;2023-03-20T04:14:17;28.17;;;14.15;;
49730;SDS011;35622;52.008;5.426;2023-03-20T04:16:43;36.10;;;14.35;;
49730;SDS011;35622;52.008;5.426;2023-03-20T04:19:09;32.13;;;14.52;;
49730;SDS011;35622;52.008;5.426;2023-03-20T04:21:35;29.63;;;15.25;;
49730;SDS011;35622;52.008;5.426;2023-03-20T04:24:00;30.52;;;14.55;;
49730;SDS011;35622;52.008;5.426;2023-03-20T04:26:26;31.33;;;16.00;;
49730;SDS011;35622;52.008;5.426;2023-03-20T04:28:51;31.23;;;16.42;;
49730;SDS011;35622;52.008;5.426;2023-03-20T04:31:17;35.08;;;17.08;;
49730;SDS011;35622;52.008;5.426;2023-03-20T04:33:43;33.33;;;16.23;;
49730;SDS011;35622;52.008;5.426;2023-03-20T04:36:09;36.13;;;17.20;;
49730;SDS011;35622;52.008;5.426;2023-03-20T04:38:35;31.05;;;15.68;;
49730;SDS011;35622;52.008;5.426;2023-03-20T04:41:01;32.40;;;17.02;;
49730;SDS011;35622;52.008;5.426;2023-03-20T04:43:27;29.52;;;16.13;;
49730;SDS011;35622;52.008;5.426;2023-03-20T04:45:52;34.53;;;17.73;;
49730;SDS011;35622;52.008;5.426;2023-03-20T04:48:18;32.97;;;16.75;;
49730;SDS011;35622;52.008;5.426;2023-03-20T04:50:43;31.80;;;17.60;;
49730;SDS011;35622;52.008;5.426;2023-03-20T04:53:12;34.28;;;18.10;;
49730;SDS011;35622;52.008;5.426;2023-03-20T04:55:38;29.77;;;16.08;;
49730;SDS011;35622;52.008;5.426;2023-03-20T04:58:04;30.20;;;17.83;;
49730;SDS011;35622;52.008;5.426;2023-03-20T05:00:29;32.88;;;17.92;;
49730;SDS011;35622;52.008;5.426;2023-03-20T05:02:55;31.27;;;18.05;;
49730;SDS011;35622;52.008;5.426;2023-03-20T05:05:20;34.15;;;17.25;;
49730;SDS011;35622;52.008;5.426;2023-03-20T05:07:47;27.40;;;16.10;;
49730;SDS011;35622;52.008;5.426;2023-03-20T05:10:13;26.88;;;16.88;;
49730;SDS011;35622;52.008;5.426;2023-03-20T05:12:38;30.23;;;18.40;;
49730;SDS011;35622;52.008;5.426;2023-03-20T05:15:04;31.75;;;17.73;;
49730;SDS011;35622;52.008;5.426;2023-03-20T05:17:30;29.70;;;17.55;;
49730;SDS011;35622;52.008;5.426;2023-03-20T05:19:55;29.67;;;17.20;;
49730;SDS011;35622;52.008;5.426;2023-03-20T05:22:21;32.47;;;17.13;;
49730;SDS011;35622;52.008;5.426;2023-03-20T05:24:47;36.38;;;18.02;;
49730;SDS011;35622;52.008;5.426;2023-03-20T05:27:12;29.88;;;17.13;;
49730;SDS011;35622;52.008;5.426;2023-03-20T05:29:38;31.40;;;17.77;;
49730;SDS011;35622;52.008;5.426;2023-03-20T05:32:03;31.85;;;17.63;;
49730;SDS011;35622;52.008;5.426;2023-03-20T05:34:29;30.65;;;17.52;;
49730;SDS011;35622;52.008;5.426;2023-03-20T05:36:55;31.02;;;17.23;;
49730;SDS011;35622;52.008;5.426;2023-03-20T05:39:20;28.25;;;16.48;;
49730;SDS011;35622;52.008;5.426;2023-03-20T05:41:46;29.77;;;16.55;;
49730;SDS011;35622;52.008;5.426;2023-03-20T05:44:11;30.08;;;17.25;;
49730;SDS011;35622;52.008;5.426;2023-03-20T05:46:37;30.65;;;16.98;;
49730;SDS011;35622;52.008;5.426;2023-03-20T05:49:03;28.95;;;16.05;;
49730;SDS011;35622;52.008;5.426;2023-03-20T05:51:28;30.27;;;16.20;;
49730;SDS011;35622;52.008;5.426;2023-03-20T05:53:54;26.58;;;16.08;;
49730;SDS011;35622;52.008;5.426;2023-03-20T05:56:19;26.58;;;15.57;;
49730;SDS011;35622;52.008;5.426;2023-03-20T05:58:45;24.95;;;15.30;;
49730;SDS011;35622;52.008;5.426;2023-03-20T06:01:10;25.60;;;15.15;;
49730;SDS011;35622;52.008;5.426;2023-03-20T06:03:36;25.70;;;16.00;;
49730;SDS011;35622;52.008;5.426;2023-03-20T06:06:02;26.67;;;15.68;;
49730;SDS011;35622;52.008;5.426;2023-03-20T06:08:28;29.40;;;15.60;;
49730;SDS011;35622;52.008;5.426;2023-03-20T06:10:54;24.45;;;15.32;;
49730;SDS011;35622;52.008;5.426;2023-03-20T06:13:20;23.35;;;15.35;;
49730;SDS011;35622;52.008;5.426;2023-03-20T06:15:46;26.50;;;14.38;;
49730;SDS011;35622;52.008;5.426;2023-03-20T06:18:11;26.15;;;15.00;;
49730;SDS011;35622;52.008;5.426;2023-03-20T06:20:37;24.20;;;14.73;;
49730;SDS011;35622;52.008;5.426;2023-03-20T06:23:02;24.85;;;14.98;;
49730;SDS011;35622;52.008;5.426;2023-03-20T06:25:28;28.42;;;15.35;;
49730;SDS011;35622;52.008;5.426;2023-03-20T06:27:53;26.15;;;14.65;;
49730;SDS011;35622;52.008;5.426;2023-03-20T06:30:19;26.38;;;14.70;;
49730;SDS011;35622;52.008;5.426;2023-03-20T06:32:44;28.02;;;14.77;;
49730;SDS011;35622;52.008;5.426;2023-03-20T06:35:11;22.20;;;13.63;;
49730;SDS011;35622;52.008;5.426;2023-03-20T06:37:37;23.10;;;14.52;;
49730;SDS011;35622;52.008;5.426;2023-03-20T06:40:03;26.13;;;14.45;;
49730;SDS011;35622;52.008;5.426;2023-03-20T06:42:30;26.40;;;14.30;;
49730;SDS011;35622;52.008;5.426;2023-03-20T06:44:55;24.80;;;13.77;;
49730;SDS011;35622;52.008;5.426;2023-03-20T06:47:21;21.75;;;13.18;;
49730;SDS011;35622;52.008;5.426;2023-03-20T06:49:47;22.75;;;14.50;;
49730;SDS011;35622;52.008;5.426;2023-03-20T06:52:15;25.13;;;14.32;;
49730;SDS011;35622;52.008;5.426;2023-03-20T06:54:43;22.02;;;13.75;;
49730;SDS011;35622;52.008;5.426;2023-03-20T06:57:09;24.27;;;13.55;;
49730;SDS011;35622;52.008;5.426;2023-03-20T06:59:35;25.25;;;14.32;;
49730;SDS011;35622;52.008;5.426;2023-03-20T07:02:00;22.15;;;13.55;;
49730;SDS011;35622;52.008;5.426;2023-03-20T07:04:26;24.20;;;14.00;;
49730;SDS011;35622;52.008;5.426;2023-03-20T07:06:52;23.63;;;14.00;;
49730;SDS011;35622;52.008;5.426;2023-03-20T07:09:18;24.00;;;13.88;;
49730;SDS011;35622;52.008;5.426;2023-03-20T07:11:43;23.77;;;14.07;;
49730;SDS011;35622;52.008;5.426;2023-03-20T13:52:25;21.92;;;13.07;;
49730;SDS011;35622;52.008;5.426;2023-03-20T13:55:07;23.48;;;14.35;;
49730;SDS011;35622;52.008;5.426;2023-03-20T14:00:30;29.52;;;15.98;;
49730;SDS011;35622;52.008;5.426;2023-03-20T14:03:17;21.17;;;15.15;;
49730;SDS011;35622;52.008;5.426;2023-03-20T14:05:48;25.65;;;16.02;;
49730;SDS011;35622;52.008;5.426;2023-03-20T14:13:39;22.92;;;14.85;;
49730;SDS011;35622;52.008;5.426;2023-03-20T14:16:16;22.35;;;14.73;;
49730;SDS011;35622;52.008;5.426;2023-03-20T14:18:44;23.10;;;14.30;;
49730;SDS011;35622;52.008;5.426;2023-03-20T14:21:14;24.15;;;14.77;;
49730;SDS011;35622;52.008;5.426;2023-03-20T14:23:46;23.92;;;13.00;;
49730;SDS011;35622;52.008;5.426;2023-03-20T14:28:57;24.48;;;13.70;;
49730;SDS011;35622;52.008;5.426;2023-03-20T14:31:27;21.25;;;12.90;;
49730;SDS011;35622;52.008;5.426;2023-03-20T14:36:50;21.05;;;12.73;;
49730;SDS011;35622;52.008;5.426;2023-03-20T14:42:18;21.92;;;13.55;;
49730;SDS011;35622;52.008;5.426;2023-03-20T14:53:26;21.63;;;12.95;;
49730;SDS011;35622;52.008;5.426;2023-03-20T15:01:06;22.45;;;13.07;;
49730;SDS011;35622;52.008;5.426;2023-03-20T15:03:39;19.10;;;12.73;;
49730;SDS011;35622;52.008;5.426;2023-03-20T15:06:06;24.45;;;13.55;;
49730;SDS011;35622;52.008;5.426;2023-03-20T15:08:33;23.48;;;14.50;;
49730;SDS011;35622;52.008;5.426;2023-03-20T15:11:06;21.30;;;13.20;;
49730;SDS011;35622;52.008;5.426;2023-03-20T15:13:33;23.58;;;13.90;;
49730;SDS011;35622;52.008;5.426;2023-03-20T15:16:05;19.55;;;13.00;;
49730;SDS011;35622;52.008;5.426;2023-03-20T15:18:42;19.85;;;13.02;;
49730;SDS011;35622;52.008;5.426;2023-03-20T15:21:10;25.48;;;13.38;;
49730;SDS011;35622;52.008;5.426;2023-03-20T15:23:45;22.25;;;13.40;;
49730;SDS011;35622;52.008;5.426;2023-03-20T15:26:15;20.75;;;12.80;;
49730;SDS011;35622;52.008;5.426;2023-03-20T15:28:44;20.52;;;12.75;;
49730;SDS011;35622;52.008;5.426;2023-03-20T15:31:19;19.52;;;12.88;;
49730;SDS011;35622;52.008;5.426;2023-03-20T15:33:47;20.42;;;12.57;;
49730;SDS011;35622;52.008;5.426;2023-03-20T15:36:17;22.05;;;12.43;;
49730;SDS011;35622;52.008;5.426;2023-03-20T15:38:45;19.98;;;11.85;;
49730;SDS011;35622;52.008;5.426;2023-03-20T15:41:23;21.83;;;12.57;;
49730;SDS011;35622;52.008;5.426;2023-03-20T15:44:00;20.95;;;12.95;;
49730;SDS011;35622;52.008;5.426;2023-03-20T15:46:51;18.40;;;11.70;;
49730;SDS011;35622;52.008;5.426;2023-03-20T15:49:20;18.73;;;12.60;;
49730;SDS011;35622;52.008;5.426;2023-03-20T15:51:46;20.33;;;13.15;;
49730;SDS011;35622;52.008;5.426;2023-03-20T15:54:13;19.77;;;12.43;;
49730;SDS011;35622;52.008;5.426;2023-03-20T15:56:43;20.65;;;12.93;;
49730;SDS011;35622;52.008;5.426;2023-03-20T15:59:12;23.27;;;13.48;;
49730;SDS011;35622;52.008;5.426;2023-03-20T16:01:41;24.63;;;12.93;;
49730;SDS011;35622;52.008;5.426;2023-03-20T16:04:08;20.80;;;13.20;;
49730;SDS011;35622;52.008;5.426;2023-03-20T16:06:43;21.75;;;13.50;;
49730;SDS011;35622;52.008;5.426;2023-03-20T16:09:18;21.02;;;12.68;;
49730;SDS011;35622;52.008;5.426;2023-03-20T16:11:45;25.20;;;13.10;;
49730;SDS011;35622;52.008;5.426;2023-03-20T16:14:17;20.73;;;12.85;;
49730;SDS011;35622;52.008;5.426;2023-03-20T16:16:47;25.13;;;12.30;;
49730;SDS011;35622;52.008;5.426;2023-03-20T16:19:14;22.05;;;11.80;;
49730;SDS011;35622;52.008;5.426;2023-03-20T16:21:48;21.75;;;13.68;;
49730;SDS011;35622;52.008;5.426;2023-03-20T16:24:18;21.10;;;12.57;;
49730;SDS011;35622;52.008;5.426;2023-03-20T16:26:50;24.35;;;12.50;;
49730;SDS011;35622;52.008;5.426;2023-03-20T16:29:17;22.23;;;13.27;;
49730;SDS011;35622;52.008;5.426;2023-03-20T16:32:27;28.13;;;13.63;;
49730;SDS011;35622;52.008;5.426;2023-03-20T16:34:41;21.70;;;13.02;;
49730;SDS011;35622;52.008;5.426;2023-03-20T16:37:27;27.48;;;14.23;;
49730;SDS011;35622;52.008;5.426;2023-03-20T16:42:38;22.42;;;12.20;;
49730;SDS011;35622;52.008;5.426;2023-03-20T16:45:04;26.52;;;14.48;;
49730;SDS011;35622;52.008;5.426;2023-03-20T16:47:39;22.48;;;13.48;;
49730;SDS011;35622;52.008;5.426;2023-03-20T16:52:40;27.15;;;14.73;;
49730;SDS011;35622;52.008;5.426;2023-03-20T16:55:14;28.83;;;13.93;;
49730;SDS011;35622;52.008;5.426;2023-03-20T16:57:48;28.25;;;14.77;;
49730;SDS011;35622;52.008;5.426;2023-03-20T17:00:21;27.58;;;15.48;;
49730;SDS011;35622;52.008;5.426;2023-03-20T17:02:49;32.00;;;14.73;;
49730;SDS011;35622;52.008;5.426;2023-03-20T17:05:23;28.20;;;14.73;;
49730;SDS011;35622;52.008;5.426;2023-03-20T17:08:05;30.20;;;16.10;;
49730;SDS011;35622;52.008;5.426;2023-03-20T17:10:36;26.55;;;16.05;;
49730;SDS011;35622;52.008;5.426;2023-03-20T17:13:03;30.95;;;16.45;;
49730;SDS011;35622;52.008;5.426;2023-03-20T17:15:31;25.40;;;15.32;;
49730;SDS011;35622;52.008;5.426;2023-03-20T17:17:56;26.10;;;15.93;;
49730;SDS011;35622;52.008;5.426;2023-03-20T17:20:23;25.60;;;15.40;;
49730;SDS011;35622;52.008;5.426;2023-03-20T17:22:50;28.70;;;16.52;;
49730;SDS011;35622;52.008;5.426;2023-03-20T17:25:17;25.17;;;15.55;;
49730;SDS011;35622;52.008;5.426;2023-03-20T17:27:43;26.50;;;15.35;;
49730;SDS011;35622;52.008;5.426;2023-03-20T17:30:15;24.90;;;14.90;;
49730;SDS011;35622;52.008;5.426;2023-03-20T17:32:43;26.85;;;15.48;;
49730;SDS011;35622;52.008;5.426;2023-03-20T17:35:09;31.27;;;15.18;;
49730;SDS011;35622;52.008;5.426;2023-03-20T17:37:34;25.00;;;14.65;;
49730;SDS011;35622;52.008;5.426;2023-03-20T17:40:00;24.25;;;15.98;;
49730;SDS011;35622;52.008;5.426;2023-03-20T17:42:27;29.45;;;15.45;;
49730;SDS011;35622;52.008;5.426;2023-03-20T17:44:58;27.52;;;15.73;;
49730;SDS011;35622;52.008;5.426;2023-03-20T17:47:27;24.52;;;15.07;;
49730;SDS011;35622;52.008;5.426;2023-03-20T17:49:53;30.17;;;16.00;;
49730;SDS011;35622;52.008;5.426;2023-03-20T17:52:23;37.22;;;17.08;;
49730;SDS011;35622;52.008;5.426;2023-03-20T17:54:50;27.88;;;16.08;;
49730;SDS011;35622;52.008;5.426;2023-03-20T17:57:33;27.85;;;16.52;;
49730;SDS011;35622;52.008;5.426;2023-03-20T18:00:00;26.75;;;15.57;;
49730;SDS011;35622;52.008;5.426;2023-03-20T18:02:26;24.77;;;16.40;;
49730;SDS011;35622;52.008;5.426;2023-03-20T18:04:52;27.02;;;15.82;;
49730;SDS011;35622;52.008;5.426;2023-03-20T18:07:18;31.35;;;17.83;;
49730;SDS011;35622;52.008;5.426;2023-03-20T18:09:44;27.35;;;17.05;;
49730;SDS011;35622;52.008;5.426;2023-03-20T18:12:12;26.67;;;17.08;;
49730;SDS011;35622;52.008;5.426;2023-03-20T18:14:39;30.90;;;17.10;;
49730;SDS011;35622;52.008;5.426;2023-03-20T18:17:04;32.40;;;18.17;;
49730;SDS011;35622;52.008;5.426;2023-03-20T18:19:31;33.63;;;17.92;;
49730;SDS011;35622;52.008;5.426;2023-03-20T18:22:07;32.95;;;18.25;;
49730;SDS011;35622;52.008;5.426;2023-03-20T18:24:33;32.55;;;18.02;;
49730;SDS011;35622;52.008;5.426;2023-03-20T18:26:59;28.00;;;17.58;;
49730;SDS011;35622;52.008;5.426;2023-03-20T18:29:25;35.80;;;17.52;;
49730;SDS011;35622;52.008;5.426;2023-03-20T18:31:51;34.38;;;19.77;;
49730;SDS011;35622;52.008;5.426;2023-03-20T18:34:17;32.28;;;19.80;;
49730;SDS011;35622;52.008;5.426;2023-03-20T18:36:43;39.10;;;20.05;;
49730;SDS011;35622;52.008;5.426;2023-03-20T18:39:19;28.95;;;18.42;;
49730;SDS011;35622;52.008;5.426;2023-03-20T18:41:47;27.58;;;19.60;;
49730;SDS011;35622;52.008;5.426;2023-03-20T18:44:13;34.92;;;18.75;;
49730;SDS011;35622;52.008;5.426;2023-03-20T18:46:39;33.57;;;20.80;;
49730;SDS011;35622;52.008;5.426;2023-03-20T18:49:14;44.05;;;21.57;;
49730;SDS011;35622;52.008;5.426;2023-03-20T18:51:40;31.67;;;21.10;;
49730;SDS011;35622;52.008;5.426;2023-03-20T18:54:06;35.70;;;20.75;;
49730;SDS011;35622;52.008;5.426;2023-03-20T18:56:31;37.63;;;21.38;;
49730;SDS011;35622;52.008;5.426;2023-03-20T18:59:00;40.33;;;22.70;;
49730;SDS011;35622;52.008;5.426;2023-03-20T19:01:30;37.47;;;21.15;;
49730;SDS011;35622;52.008;5.426;2023-03-20T19:03:56;34.35;;;20.80;;
49730;SDS011;35622;52.008;5.426;2023-03-20T19:06:21;42.25;;;22.58;;
49730;SDS011;35622;52.008;5.426;2023-03-20T19:08:47;42.33;;;23.15;;
49730;SDS011;35622;52.008;5.426;2023-03-20T19:11:14;39.65;;;22.27;;
49730;SDS011;35622;52.008;5.426;2023-03-20T19:13:41;40.85;;;22.55;;
49730;SDS011;35622;52.008;5.426;2023-03-20T19:16:27;31.42;;;20.40;;
49730;SDS011;35622;52.008;5.426;2023-03-20T19:18:56;47.20;;;23.65;;
49730;SDS011;35622;52.008;5.426;2023-03-20T19:21:25;42.03;;;22.95;;
49730;SDS011;35622;52.008;5.426;2023-03-20T19:23:52;41.45;;;24.58;;
49730;SDS011;35622;52.008;5.426;2023-03-20T19:26:19;44.15;;;24.05;;
49730;SDS011;35622;52.008;5.426;2023-03-20T19:28:45;42.42;;;25.25;;
49730;SDS011;35622;52.008;5.426;2023-03-20T19:31:12;48.67;;;25.13;;
49730;SDS011;35622;52.008;5.426;2023-03-20T19:33:38;45.72;;;24.75;;
49730;SDS011;35622;52.008;5.426;2023-03-20T19:36:04;38.42;;;23.73;;
49730;SDS011;35622;52.008;5.426;2023-03-20T19:38:31;44.13;;;24.63;;
49730;SDS011;35622;52.008;5.426;2023-03-20T19:40:58;46.83;;;25.90;;
49730;SDS011;35622;52.008;5.426;2023-03-20T19:43:24;43.90;;;26.13;;
49730;SDS011;35622;52.008;5.426;2023-03-20T19:45:50;41.72;;;25.33;;
49730;SDS011;35622;52.008;5.426;2023-03-20T19:48:22;40.25;;;24.88;;
49730;SDS011;35622;52.008;5.426;2023-03-20T19:50:54;44.43;;;27.37;;
49730;SDS011;35622;52.008;5.426;2023-03-20T19:53:21;48.78;;;26.27;;
49730;SDS011;35622;52.008;5.426;2023-03-20T19:55:50;42.42;;;26.10;;
49730;SDS011;35622;52.008;5.426;2023-03-20T19:58:17;44.72;;;24.77;;
49730;SDS011;35622;52.008;5.426;2023-03-20T20:00:43;48.67;;;25.08;;
49730;SDS011;35622;52.008;5.426;2023-03-20T20:03:18;48.15;;;25.42;;
49730;SDS011;35622;52.008;5.426;2023-03-20T20:05:45;37.60;;;23.98;;
49730;SDS011;35622;52.008;5.426;2023-03-20T20:08:12;35.85;;;23.50;;
49730;SDS011;35622;52.008;5.426;2023-03-20T20:10:48;40.42;;;25.95;;
49730;SDS011;35622;52.008;5.426;2023-03-20T20:13:16;46.72;;;24.20;;
49730;SDS011;35622;52.008;5.426;2023-03-20T20:15:47;48.28;;;25.55;;
49730;SDS011;35622;52.008;5.426;2023-03-20T20:18:14;44.28;;;25.10;;
49730;SDS011;35622;52.008;5.426;2023-03-20T20:20:40;41.85;;;25.50;;
49730;SDS011;35622;52.008;5.426;2023-03-20T20:23:11;40.45;;;25.83;;
49730;SDS011;35622;52.008;5.426;2023-03-20T20:25:38;36.88;;;24.00;;
49730;SDS011;35622;52.008;5.426;2023-03-20T20:28:04;39.75;;;25.08;;
49730;SDS011;35622;52.008;5.426;2023-03-20T20:30:31;35.92;;;24.05;;
49730;SDS011;35622;52.008;5.426;2023-03-20T20:32:57;37.47;;;22.90;;
49730;SDS011;35622;52.008;5.426;2023-03-20T20:35:23;30.92;;;22.00;;
49730;SDS011;35622;52.008;5.426;2023-03-20T20:37:48;32.63;;;20.58;;
49730;SDS011;35622;52.008;5.426;2023-03-20T20:40:15;36.28;;;21.23;;
49730;SDS011;35622;52.008;5.426;2023-03-20T20:42:42;34.08;;;21.20;;
49730;SDS011;35622;52.008;5.426;2023-03-20T20:45:11;26.80;;;19.95;;
49730;SDS011;35622;52.008;5.426;2023-03-20T20:47:39;29.27;;;20.65;;
49730;SDS011;35622;52.008;5.426;2023-03-20T20:50:06;31.25;;;22.25;;
49730;SDS011;35622;52.008;5.426;2023-03-20T20:52:33;28.42;;;21.48;;
49730;SDS011;35622;52.008;5.426;2023-03-20T20:55:00;35.50;;;22.08;;
49730;SDS011;35622;52.008;5.426;2023-03-20T20:57:25;37.65;;;23.20;;
49730;SDS011;35622;52.008;5.426;2023-03-20T20:59:51;36.58;;;23.90;;
49730;SDS011;35622;52.008;5.426;2023-03-20T21:02:23;31.27;;;22.90;;
49730;SDS011;35622;52.008;5.426;2023-03-20T21:04:53;36.88;;;23.90;;
49730;SDS011;35622;52.008;5.426;2023-03-20T21:07:19;33.38;;;23.85;;
49730;SDS011;35622;52.008;5.426;2023-03-20T21:09:46;35.08;;;23.95;;
49730;SDS011;35622;52.008;5.426;2023-03-20T21:12:12;33.55;;;23.80;;
49730;SDS011;35622;52.008;5.426;2023-03-20T21:14:39;36.13;;;24.33;;
49730;SDS011;35622;52.008;5.426;2023-03-20T21:17:05;34.85;;;24.65;;
49730;SDS011;35622;52.008;5.426;2023-03-20T21:19:33;40.60;;;25.95;;
49730;SDS011;35622;52.008;5.426;2023-03-20T21:22:06;41.22;;;25.77;;
49730;SDS011;35622;52.008;5.426;2023-03-20T21:24:33;46.40;;;26.35;;
49730;SDS011;35622;52.008;5.426;2023-03-20T21:26:59;38.83;;;26.60;;
49730;SDS011;35622;52.008;5.426;2023-03-20T21:29:27;41.80;;;26.10;;
49730;SDS011;35622;52.008;5.426;2023-03-20T21:31:52;36.80;;;26.10;;
49730;SDS011;35622;52.008;5.426;2023-03-20T21:34:18;39.00;;;25.42;;
49730;SDS011;35622;52.008;5.426;2023-03-20T21:36:43;46.97;;;25.75;;
49730;SDS011;35622;52.008;5.426;2023-03-20T21:39:10;40.83;;;27.05;;
49730;SDS011;35622;52.008;5.426;2023-03-20T21:41:37;41.88;;;27.73;;
49730;SDS011;35622;52.008;5.426;2023-03-20T21:44:04;46.45;;;26.52;;
49730;SDS011;35622;52.008;5.426;2023-03-20T21:46:31;42.83;;;27.27;;
49730;SDS011;35622;52.008;5.426;2023-03-20T21:48:57;37.72;;;26.10;;
49730;SDS011;35622;52.008;5.426;2023-03-20T21:51:22;46.25;;;26.88;;
49730;SDS011;35622;52.008;5.426;2023-03-20T21:53:48;40.78;;;25.48;;
49730;SDS011;35622;52.008;5.426;2023-03-20T21:56:13;41.35;;;26.58;;
49730;SDS011;35622;52.008;5.426;2023-03-20T21:58:39;40.45;;;26.70;;
49730;SDS011;35622;52.008;5.426;2023-03-20T22:01:05;40.03;;;25.77;;
49730;SDS011;35622;52.008;5.426;2023-03-20T22:03:31;35.35;;;24.45;;
49730;SDS011;35622;52.008;5.426;2023-03-20T22:05:56;37.60;;;25.05;;
49730;SDS011;35622;52.008;5.426;2023-03-20T22:08:26;38.55;;;25.00;;
49730;SDS011;35622;52.008;5.426;2023-03-20T22:10:51;38.58;;;24.88;;
49730;SDS011;35622;52.008;5.426;2023-03-20T22:13:17;41.85;;;25.17;;
49730;SDS011;35622;52.008;5.426;2023-03-20T22:15:42;39.88;;;25.10;;
49730;SDS011;35622;52.008;5.426;2023-03-20T22:18:08;34.97;;;24.20;;
49730;SDS011;35622;52.008;5.426;2023-03-20T22:20:34;37.13;;;24.30;;
49730;SDS011;35622;52.008;5.426;2023-03-20T22:22:59;35.10;;;23.33;;